ASH weather

Boire Field
Nashua, New Hampshire, United States

Public forecast

Using degrees Fahrenheit for public forecast. Weather courtesy of forecast.io.

METAR (pilot weather report)

Retrieved 2017/10/21 12:56 UTC (4 minutes ago):

KASH 211256Z 00000KT 10SM CLR 09/05 A3028 RMK AO2 SLP266 T00890050

TAF (pilot weather forecast)

Closest forecast is Manchester Airport, 9.7 nm (18.0 km) NNE. Retrieved 2017/10/21 12:21 UTC (39 minutes ago):

TAF KMHT 211120Z 2112/2212 VRB03KT P6SM SKC